createdAt,value
2022-09-27T00:00:32.464Z,0.00
2022-09-27T00:01:32.487Z,0.00
2022-09-27T00:02:32.525Z,0.00
2022-09-27T00:03:32.471Z,0.00
2022-09-27T00:04:32.436Z,0.00
2022-09-27T00:05:32.426Z,0.00
2022-09-27T00:06:32.421Z,0.00
2022-09-27T00:07:32.414Z,0.00
2022-09-27T00:08:32.444Z,0.00
2022-09-27T00:09:32.401Z,0.00
2022-09-27T00:10:32.383Z,0.00
2022-09-27T00:11:32.378Z,0.00
2022-09-27T00:12:32.373Z,0.00
2022-09-27T00:13:32.391Z,0.00
2022-09-27T00:14:32.357Z,0.00
2022-09-27T00:15:32.401Z,0.00
2022-09-27T00:16:32.335Z,0.00
2022-09-27T00:17:32.327Z,0.00
2022-09-27T00:18:33.345Z,0.00
2022-09-27T00:19:32.311Z,0.00
2022-09-27T00:20:32.303Z,0.00
2022-09-27T00:21:32.306Z,0.00
2022-09-27T00:22:32.284Z,0.00
2022-09-27T00:23:32.310Z,0.00
2022-09-27T00:24:32.273Z,0.00
2022-09-27T00:25:32.258Z,0.00
2022-09-27T00:26:32.259Z,0.00
2022-09-27T00:27:32.249Z,0.00
2022-09-27T00:28:32.271Z,0.00
2022-09-27T00:29:32.228Z,0.00
2022-09-27T00:30:32.219Z,0.00
2022-09-27T00:31:32.306Z,0.00
2022-09-27T00:32:32.214Z,0.00
2022-09-27T00:33:32.239Z,0.00
2022-09-27T00:34:32.194Z,0.00
2022-09-27T00:35:32.185Z,0.00
2022-09-27T00:36:32.176Z,0.00
2022-09-27T00:37:32.166Z,0.00
2022-09-27T00:38:32.189Z,0.00
2022-09-27T00:39:32.155Z,0.00
2022-09-27T00:40:32.186Z,0.00
2022-09-27T00:41:32.135Z,0.00
2022-09-27T00:42:32.134Z,0.00
2022-09-27T00:43:32.126Z,0.00
2022-09-27T00:44:32.140Z,0.00
2022-09-27T00:45:32.106Z,0.00
2022-09-27T00:46:32.182Z,0.00
2022-09-27T00:47:32.087Z,0.00
2022-09-27T00:48:32.078Z,0.00
2022-09-27T00:49:32.107Z,0.00
2022-09-27T00:50:32.067Z,0.00
2022-09-27T00:51:32.068Z,0.00
2022-09-27T00:52:32.049Z,0.00
2022-09-27T00:53:32.034Z,0.00
2022-09-27T00:54:32.056Z,0.00
2022-09-27T00:55:32.020Z,0.00
2022-09-27T00:56:32.016Z,0.00
2022-09-27T00:57:32.004Z,0.00
2022-09-27T00:58:31.990Z,0.00
2022-09-27T00:59:32.015Z,0.00
2022-09-27T01:00:31.987Z,0.00
2022-09-27T01:01:31.999Z,0.00
2022-09-27T01:02:32.016Z,0.00
2022-09-27T01:03:31.953Z,0.00
2022-09-27T01:04:31.971Z,0.00
2022-09-27T01:05:31.938Z,0.00
2022-09-27T01:06:31.926Z,0.00
2022-09-27T01:07:32.918Z,0.00
2022-09-27T01:08:31.917Z,0.00
2022-09-27T01:09:31.929Z,0.00
2022-09-27T01:10:31.899Z,0.00
2022-09-27T01:11:31.893Z,0.00
2022-09-27T01:12:31.878Z,0.00
2022-09-27T01:13:31.872Z,0.00
2022-09-27T01:14:31.895Z,0.00
2022-09-27T01:15:31.896Z,0.00
2022-09-27T01:16:31.847Z,0.00
2022-09-27T01:17:31.838Z,0.00
2022-09-27T01:18:31.834Z,0.00
2022-09-27T01:19:31.853Z,0.00
2022-09-27T01:20:31.821Z,0.00
2022-09-27T01:21:31.807Z,0.00
2022-09-27T01:22:31.802Z,0.00
2022-09-27T01:23:31.818Z,0.00
2022-09-27T01:24:31.804Z,0.00
2022-09-27T01:25:31.771Z,0.00
2022-09-27T01:26:31.764Z,0.00
2022-09-27T01:27:31.760Z,0.00
2022-09-27T01:28:31.749Z,0.00
2022-09-27T01:29:31.766Z,0.00
2022-09-27T01:30:31.727Z,0.00
2022-09-27T01:31:31.752Z,0.00
2022-09-27T01:32:31.736Z,0.00
2022-09-27T01:33:31.713Z,0.00
2022-09-27T01:34:31.723Z,0.00
2022-09-27T01:35:31.686Z,0.00
2022-09-27T01:36:31.680Z,0.00
2022-09-27T01:37:31.668Z,0.00
2022-09-27T01:38:31.664Z,0.00
2022-09-27T01:39:31.682Z,0.00
2022-09-27T01:40:31.671Z,0.00
2022-09-27T01:41:31.642Z,0.00
2022-09-27T01:42:31.627Z,0.00
2022-09-27T01:43:31.628Z,0.00
2022-09-27T01:44:31.645Z,0.00
2022-09-27T01:45:31.608Z,0.00
2022-09-27T01:46:31.660Z,0.00
2022-09-27T01:47:31.594Z,0.00
2022-09-27T01:48:31.586Z,0.00
2022-09-27T01:49:31.599Z,0.00
2022-09-27T01:50:31.569Z,0.00
2022-09-27T01:51:31.559Z,0.00
2022-09-27T01:52:31.549Z,0.00
2022-09-27T01:53:31.549Z,0.00
2022-09-27T01:54:31.561Z,0.00
2022-09-27T01:55:31.529Z,0.00
2022-09-27T01:56:31.521Z,0.00
2022-09-27T01:57:31.512Z,0.00
2022-09-27T01:58:31.505Z,0.00
2022-09-27T01:59:31.531Z,0.00
2022-09-27T02:00:31.492Z,0.00
2022-09-27T02:01:31.574Z,0.00
2022-09-27T02:02:31.523Z,0.00
2022-09-27T02:03:31.473Z,0.00
2022-09-27T02:04:31.482Z,0.00
2022-09-27T02:05:31.452Z,0.00
2022-09-27T02:06:31.431Z,0.00
2022-09-27T02:07:31.431Z,0.00
2022-09-27T02:08:31.426Z,0.00
2022-09-27T02:09:31.444Z,0.00
2022-09-27T02:10:31.411Z,0.00
2022-09-27T02:11:31.394Z,0.00
2022-09-27T02:12:31.390Z,0.00
2022-09-27T02:13:31.380Z,0.00
2022-09-27T02:14:31.399Z,0.00
2022-09-27T02:15:31.422Z,0.00
2022-09-27T02:16:31.355Z,0.00
2022-09-27T02:17:31.335Z,0.00
2022-09-27T02:18:32.341Z,0.00
2022-09-27T02:19:31.359Z,0.00
2022-09-27T02:20:31.317Z,0.00
2022-09-27T02:21:31.312Z,0.00
2022-09-27T02:22:31.302Z,0.00
2022-09-27T02:23:31.296Z,0.00
2022-09-27T02:24:31.314Z,0.00
2022-09-27T02:25:31.281Z,0.00
2022-09-27T02:26:31.272Z,0.00
2022-09-27T02:27:31.263Z,0.00
2022-09-27T02:28:31.248Z,0.00
2022-09-27T02:29:31.269Z,0.00
2022-09-27T02:30:31.277Z,0.00
2022-09-27T02:31:31.275Z,0.00
2022-09-27T02:32:31.216Z,0.00
2022-09-27T02:33:31.205Z,0.00
2022-09-27T02:34:31.225Z,0.00
2022-09-27T02:35:31.194Z,0.00
2022-09-27T02:36:31.184Z,0.00
2022-09-27T02:37:31.170Z,0.00
2022-09-27T02:38:31.172Z,0.00
2022-09-27T02:39:31.192Z,0.00
2022-09-27T02:40:31.233Z,0.00
2022-09-27T02:41:31.148Z,0.00
2022-09-27T02:42:31.149Z,0.00
2022-09-27T02:43:31.133Z,0.00
2022-09-27T02:44:31.150Z,0.00
2022-09-27T02:45:31.115Z,0.00
2022-09-27T02:46:31.137Z,0.00
2022-09-27T02:47:31.096Z,0.00
2022-09-27T02:48:31.074Z,0.00
2022-09-27T02:49:32.106Z,0.00
2022-09-27T02:50:31.073Z,0.00
2022-09-27T02:51:31.061Z,0.00
2022-09-27T02:52:31.054Z,0.00
2022-09-27T02:53:31.046Z,0.00
2022-09-27T02:54:31.068Z,0.00
2022-09-27T02:55:31.024Z,0.00
2022-09-27T02:56:31.018Z,0.00
2022-09-27T02:57:31.010Z,0.00
2022-09-27T02:58:30.995Z,0.00
2022-09-27T02:59:31.017Z,0.00
2022-09-27T03:00:30.986Z,0.00
2022-09-27T03:01:31.002Z,0.00
2022-09-27T03:02:31.995Z,0.00
2022-09-27T03:03:30.962Z,0.00
2022-09-27T03:04:30.984Z,0.00
2022-09-27T03:05:30.946Z,0.00
2022-09-27T03:06:30.936Z,0.00
2022-09-27T03:07:30.928Z,0.00
2022-09-27T03:08:30.926Z,0.00
2022-09-27T03:09:30.946Z,0.00
2022-09-27T03:10:30.920Z,0.00
2022-09-27T03:11:30.900Z,0.00
2022-09-27T03:12:30.905Z,0.00
2022-09-27T03:13:30.886Z,0.00
2022-09-27T03:14:30.900Z,0.00
2022-09-27T03:15:30.875Z,0.00
2022-09-27T03:16:30.918Z,0.00
2022-09-27T03:17:30.854Z,0.00
2022-09-27T03:18:30.844Z,0.00
2022-09-27T03:19:30.869Z,0.00
2022-09-27T03:20:30.857Z,0.00
2022-09-27T03:21:30.813Z,0.00
2022-09-27T03:22:30.810Z,0.00
2022-09-27T03:23:30.802Z,0.00
2022-09-27T03:24:30.831Z,0.00
2022-09-27T03:25:30.790Z,0.00
2022-09-27T03:26:30.778Z,0.00
2022-09-27T03:27:30.766Z,0.00
2022-09-27T03:28:30.764Z,0.00
2022-09-27T03:29:30.746Z,0.00
2022-09-27T03:30:30.803Z,0.00
2022-09-27T03:31:31.824Z,0.00
2022-09-27T03:32:30.720Z,0.00
2022-09-27T03:33:30.718Z,0.00
2022-09-27T03:34:30.714Z,0.00
2022-09-27T03:35:30.730Z,0.00
2022-09-27T03:36:30.688Z,0.00
2022-09-27T03:37:30.681Z,0.00
2022-09-27T03:38:30.672Z,0.00
2022-09-27T03:39:30.677Z,0.00
2022-09-27T03:40:30.755Z,0.00
2022-09-27T03:41:30.652Z,0.00
2022-09-27T03:42:30.644Z,0.00
2022-09-27T03:43:30.633Z,0.00
2022-09-27T03:44:30.630Z,0.00
2022-09-27T03:45:30.648Z,0.00
2022-09-27T03:46:30.707Z,0.00
2022-09-27T03:47:30.595Z,0.00
2022-09-27T03:48:30.590Z,0.00
2022-09-27T03:49:30.611Z,0.00
2022-09-27T03:50:30.602Z,0.00
2022-09-27T03:51:30.576Z,0.00
2022-09-27T03:52:30.563Z,0.00
2022-09-27T03:53:30.561Z,0.00
2022-09-27T03:54:30.545Z,0.00
2022-09-27T03:55:30.602Z,0.00
2022-09-27T03:56:30.529Z,0.00
2022-09-27T03:57:30.523Z,0.00
2022-09-27T03:58:30.522Z,0.00
2022-09-27T03:59:30.516Z,0.00
2022-09-27T04:00:30.528Z,0.00
2022-09-27T04:01:30.566Z,0.00
2022-09-27T04:02:30.537Z,0.00
2022-09-27T04:03:30.490Z,0.00
2022-09-27T04:04:30.464Z,0.00
2022-09-27T04:05:30.521Z,0.00
2022-09-27T04:06:30.455Z,0.00
2022-09-27T04:07:30.447Z,0.00
2022-09-27T04:08:30.455Z,0.00
2022-09-27T04:09:30.437Z,0.00
2022-09-27T04:10:30.463Z,0.00
2022-09-27T04:11:30.419Z,0.00
2022-09-27T04:12:30.400Z,0.00
2022-09-27T04:13:30.413Z,0.00
2022-09-27T04:14:30.388Z,0.00
2022-09-27T04:15:30.428Z,0.00
2022-09-27T04:16:30.408Z,0.00
2022-09-27T04:17:30.363Z,0.00
2022-09-27T04:18:30.358Z,0.00
2022-09-27T04:19:30.345Z,0.00
2022-09-27T04:20:30.375Z,0.00
2022-09-27T04:21:30.335Z,0.00
2022-09-27T04:22:30.320Z,0.00
2022-09-27T04:23:30.433Z,0.00
2022-09-27T04:24:30.307Z,0.00
2022-09-27T04:25:30.334Z,0.00
2022-09-27T04:26:30.294Z,0.00
2022-09-27T04:27:30.295Z,0.00
2022-09-27T04:28:30.277Z,0.00
2022-09-27T04:29:30.303Z,0.00
2022-09-27T04:30:30.340Z,0.00
2022-09-27T04:31:30.316Z,0.00
2022-09-27T04:32:30.250Z,0.00
2022-09-27T04:33:30.239Z,0.00
2022-09-27T04:34:30.273Z,0.00
2022-09-27T04:35:30.223Z,0.00
2022-09-27T04:36:30.218Z,0.00
2022-09-27T04:37:30.207Z,0.00
2022-09-27T04:38:30.197Z,0.00
2022-09-27T04:39:30.220Z,0.00
2022-09-27T04:40:30.237Z,0.00
2022-09-27T04:41:30.183Z,0.00
2022-09-27T04:42:30.165Z,0.00
2022-09-27T04:43:30.151Z,0.00
2022-09-27T04:44:30.170Z,0.00
2022-09-27T04:45:30.127Z,0.00
2022-09-27T04:46:30.196Z,0.00
2022-09-27T04:47:30.119Z,0.00
2022-09-27T04:48:30.116Z,0.00
2022-09-27T04:49:30.129Z,4.00
2022-09-27T04:50:33.255Z,4.00
2022-09-27T04:51:32.084Z,4.00
2022-09-27T04:52:30.077Z,4.00
2022-09-27T04:53:30.076Z,4.00
2022-09-27T04:54:30.080Z,4.00
2022-09-27T04:55:30.052Z,4.00
2022-09-27T04:56:30.051Z,4.00
2022-09-27T04:57:30.034Z,4.00
2022-09-27T04:58:30.033Z,12.00
2022-09-27T04:59:30.046Z,8.00
2022-09-27T05:00:30.012Z,12.00
2022-09-27T05:01:30.057Z,16.00
2022-09-27T05:02:30.011Z,20.00
2022-09-27T05:03:29.993Z,20.00
2022-09-27T05:04:30.015Z,24.00
2022-09-27T05:05:29.969Z,24.00
2022-09-27T05:06:29.963Z,32.00
2022-09-27T05:07:29.967Z,36.00
2022-09-27T05:08:29.946Z,40.00
2022-09-27T05:09:29.995Z,44.00
2022-09-27T05:10:29.929Z,48.00
2022-09-27T05:11:29.917Z,52.00
2022-09-27T05:12:29.913Z,56.00
2022-09-27T05:13:29.905Z,60.00
2022-09-27T05:14:29.936Z,68.00
2022-09-27T05:15:29.887Z,72.00
2022-09-27T05:16:32.105Z,80.00
2022-09-27T05:17:29.866Z,88.00
2022-09-27T05:18:29.863Z,92.00
2022-09-27T05:19:29.892Z,100.00
2022-09-27T05:20:29.857Z,100.00
2022-09-27T05:21:29.834Z,108.00
2022-09-27T05:22:29.828Z,108.00
2022-09-27T05:23:29.829Z,116.00
2022-09-27T05:24:29.840Z,128.00
2022-09-27T05:25:29.796Z,136.00
2022-09-27T05:26:29.819Z,144.00
2022-09-27T05:27:29.787Z,140.00
2022-09-27T05:28:29.780Z,148.00
2022-09-27T05:29:29.798Z,168.00
2022-09-27T05:30:29.793Z,188.00
2022-09-27T05:31:29.797Z,192.00
2022-09-27T05:32:29.745Z,204.00
2022-09-27T05:33:29.741Z,224.00
2022-09-27T05:34:29.765Z,244.00
2022-09-27T05:35:29.724Z,256.00
2022-09-27T05:36:29.715Z,264.00
2022-09-27T05:37:29.705Z,260.00
2022-09-27T05:38:29.692Z,264.00
2022-09-27T05:39:29.728Z,292.00
2022-09-27T05:40:40.818Z,324.00
2022-09-27T05:41:31.815Z,368.00
2022-09-27T05:42:29.660Z,400.00
2022-09-27T05:43:29.656Z,408.00
2022-09-27T05:44:29.644Z,396.00
2022-09-27T05:45:29.663Z,376.00
2022-09-27T05:46:29.693Z,408.00
2022-09-27T05:47:29.616Z,468.00
2022-09-27T05:48:29.610Z,500.00
2022-09-27T05:49:29.598Z,528.00
2022-09-27T05:50:29.625Z,552.00
2022-09-27T05:51:29.583Z,604.00
2022-09-27T05:52:29.580Z,644.00
2022-09-27T05:53:29.557Z,660.00
2022-09-27T05:54:29.555Z,708.00
2022-09-27T05:55:29.579Z,740.00
2022-09-27T05:56:29.543Z,756.00
2022-09-27T05:57:29.533Z,772.00
2022-09-27T05:58:29.535Z,812.00
2022-09-27T05:59:29.546Z,856.00
2022-09-27T06:00:29.596Z,920.00
2022-09-27T06:01:29.515Z,972.00
2022-09-27T06:02:29.526Z,976.00
2022-09-27T06:03:29.486Z,924.00
2022-09-27T06:04:29.502Z,888.00
2022-09-27T06:05:29.461Z,920.00
2022-09-27T06:06:29.471Z,932.00
2022-09-27T06:07:29.449Z,916.00
2022-09-27T06:08:29.448Z,900.00
2022-09-27T06:09:29.462Z,920.00
2022-09-27T06:10:29.424Z,916.00
2022-09-27T06:11:29.420Z,936.00
2022-09-27T06:12:29.415Z,968.00
2022-09-27T06:13:29.398Z,1040.00
2022-09-27T06:14:29.424Z,1136.00
2022-09-27T06:15:29.387Z,1312.00
2022-09-27T06:16:29.416Z,1388.00
2022-09-27T06:17:29.366Z,1212.00
2022-09-27T06:18:29.354Z,1120.00
2022-09-27T06:19:29.395Z,1116.00
2022-09-27T06:20:29.347Z,1048.00
2022-09-27T06:21:29.331Z,1052.00
2022-09-27T06:22:29.318Z,1108.00
2022-09-27T06:23:29.315Z,1176.00
2022-09-27T06:24:29.297Z,1152.00
2022-09-27T06:25:29.328Z,1116.00
2022-09-27T06:26:29.306Z,1196.00
2022-09-27T06:27:29.284Z,1200.00
2022-09-27T06:28:29.274Z,1212.00
2022-09-27T06:29:29.294Z,1268.00
2022-09-27T06:30:29.397Z,1296.00
2022-09-27T06:31:29.247Z,1292.00
2022-09-27T06:32:29.249Z,1324.00
2022-09-27T06:33:29.237Z,1388.00
2022-09-27T06:34:29.250Z,1388.00
2022-09-27T06:35:29.215Z,1368.00
2022-09-27T06:36:29.204Z,1356.00
2022-09-27T06:37:30.202Z,1324.00
2022-09-27T06:38:29.195Z,1268.00
2022-09-27T06:39:29.210Z,1268.00
2022-09-27T06:40:29.222Z,1252.00
2022-09-27T06:41:29.166Z,1288.00
2022-09-27T06:42:29.159Z,1332.00
2022-09-27T06:43:29.157Z,1276.00
2022-09-27T06:44:29.167Z,1188.00
2022-09-27T06:45:29.126Z,1120.00
2022-09-27T06:46:29.188Z,1168.00
2022-09-27T06:47:29.157Z,1260.00
2022-09-27T06:48:29.108Z,1412.00
2022-09-27T06:49:29.132Z,1584.00
2022-09-27T06:50:29.090Z,1704.00
2022-09-27T06:51:29.081Z,1824.00
2022-09-27T06:52:29.075Z,2020.00
2022-09-27T06:53:29.072Z,2232.00
2022-09-27T06:54:29.079Z,2428.00
2022-09-27T06:55:29.049Z,2616.00
2022-09-27T06:56:29.039Z,2796.00
2022-09-27T06:57:30.036Z,2880.00
2022-09-27T06:58:29.025Z,2776.00
2022-09-27T06:59:29.048Z,2804.00
2022-09-27T07:00:29.004Z,2872.00
2022-09-27T07:01:29.181Z,2964.00
2022-09-27T07:02:29.006Z,3032.00
2022-09-27T07:03:32.991Z,2980.00
2022-09-27T07:04:31.006Z,2912.00
2022-09-27T07:05:28.979Z,2896.00
2022-09-27T07:06:28.966Z,2820.00
2022-09-27T07:07:29.059Z,2544.00
2022-09-27T07:08:28.952Z,2488.00
2022-09-27T07:09:28.980Z,2460.00
2022-09-27T07:10:28.925Z,2540.00
2022-09-27T07:11:28.929Z,2544.00
2022-09-27T07:12:28.916Z,2656.00
2022-09-27T07:13:28.905Z,2740.00
2022-09-27T07:14:28.932Z,2992.00
2022-09-27T07:15:28.889Z,2892.00
2022-09-27T07:16:28.923Z,2736.00
2022-09-27T07:17:28.876Z,2712.00
2022-09-27T07:18:28.868Z,2748.00
2022-09-27T07:19:28.866Z,2844.00
2022-09-27T07:20:28.880Z,2732.00
2022-09-27T07:21:28.844Z,2784.00
2022-09-27T07:22:28.830Z,2588.00
2022-09-27T07:23:28.821Z,2620.00
2022-09-27T07:25:01.768Z,2820.00
2022-09-27T07:25:28.811Z,3220.00
2022-09-27T07:26:28.798Z,3700.00
2022-09-27T07:27:28.786Z,3980.00
2022-09-27T07:28:28.784Z,3984.00
2022-09-27T07:29:28.816Z,3888.00
2022-09-27T07:30:28.812Z,3596.00
2022-09-27T07:31:28.761Z,3480.00
2022-09-27T07:32:28.751Z,3288.00
2022-09-27T07:33:28.747Z,2680.00
2022-09-27T07:34:28.733Z,2152.00
2022-09-27T07:35:28.757Z,1996.00
2022-09-27T07:36:28.719Z,2036.00
2022-09-27T07:37:28.704Z,1924.00
2022-09-27T07:38:28.705Z,1840.00
2022-09-27T07:39:28.690Z,1836.00
2022-09-27T07:40:28.760Z,1756.00
2022-09-27T07:41:28.688Z,1656.00
2022-09-27T07:42:28.664Z,1600.00
2022-09-27T07:43:28.673Z,1556.00
2022-09-27T07:44:28.660Z,1572.00
2022-09-27T07:45:28.674Z,1644.00
2022-09-27T07:46:28.638Z,1844.00
2022-09-27T07:47:28.625Z,2044.00
2022-09-27T07:48:28.623Z,2184.00
2022-09-27T07:49:28.609Z,2420.00
2022-09-27T07:50:28.629Z,2788.00
2022-09-27T07:51:28.588Z,3180.00
2022-09-27T07:52:28.588Z,3436.00
2022-09-27T07:53:28.580Z,3820.00
2022-09-27T07:54:28.569Z,4260.00
2022-09-27T07:55:28.585Z,4712.00
2022-09-27T07:56:28.550Z,5204.00
2022-09-27T07:57:29.503Z,6096.00
2022-09-27T07:58:28.540Z,7728.00
2022-09-27T07:59:28.526Z,10616.00
2022-09-27T08:00:28.553Z,12696.00
2022-09-27T08:01:28.547Z,13128.00
2022-09-27T08:02:28.573Z,13388.00
2022-09-27T08:03:28.494Z,15128.00
2022-09-27T08:04:28.491Z,12480.00
2022-09-27T08:05:28.509Z,10864.00
2022-09-27T08:06:28.473Z,9416.00
2022-09-27T08:07:28.462Z,9352.00
2022-09-27T08:08:28.450Z,10536.00
2022-09-27T08:09:28.443Z,12076.00
2022-09-27T08:10:28.467Z,14800.00
2022-09-27T08:11:28.425Z,19840.00
2022-09-27T08:12:28.436Z,22912.00
2022-09-27T08:13:28.414Z,26560.00
2022-09-27T08:14:28.410Z,30272.00
2022-09-27T08:15:28.421Z,27104.00
2022-09-27T08:16:28.448Z,24064.00
2022-09-27T08:17:28.389Z,20512.00
2022-09-27T08:18:28.371Z,17632.00
2022-09-27T08:19:28.365Z,30560.00
2022-09-27T08:20:28.380Z,19680.00
2022-09-27T08:21:28.347Z,15412.00
2022-09-27T08:22:28.341Z,12352.00
2022-09-27T08:23:28.326Z,12052.00
2022-09-27T08:24:28.328Z,9848.00
2022-09-27T08:25:28.340Z,10168.00
2022-09-27T08:26:28.301Z,10740.00
2022-09-27T08:27:28.291Z,9588.00
2022-09-27T08:28:28.293Z,8740.00
2022-09-27T08:29:28.279Z,8520.00
2022-09-27T08:30:28.299Z,7732.00
2022-09-27T08:31:28.306Z,7856.00
2022-09-27T08:32:28.256Z,9868.00
2022-09-27T08:33:32.371Z,11704.00
2022-09-27T08:34:29.246Z,12240.00
2022-09-27T08:35:28.259Z,13116.00
2022-09-27T08:36:28.217Z,13480.00
2022-09-27T08:37:28.214Z,13584.00
2022-09-27T08:38:28.203Z,15352.00
2022-09-27T08:39:28.193Z,15576.00
2022-09-27T08:40:28.311Z,15820.00
2022-09-27T08:41:28.186Z,17024.00
2022-09-27T08:42:28.171Z,17920.00
2022-09-27T08:43:28.156Z,14964.00
2022-09-27T08:44:28.153Z,17088.00
2022-09-27T08:45:28.193Z,27456.00
2022-09-27T08:46:28.137Z,56128.00
2022-09-27T08:47:28.123Z,36832.00
2022-09-27T08:48:28.121Z,23168.00
2022-09-27T08:49:28.109Z,20224.00
2022-09-27T08:50:28.131Z,23008.00
2022-09-27T08:51:28.102Z,23808.00
2022-09-27T08:52:28.083Z,15700.00
2022-09-27T08:53:28.095Z,27296.00
2022-09-27T08:54:28.068Z,17728.00
2022-09-27T08:55:28.093Z,58528.00
2022-09-27T08:56:28.056Z,24480.00
2022-09-27T08:57:28.048Z,20512.00
2022-09-27T08:58:28.035Z,20864.00
2022-09-27T08:59:28.030Z,48896.00
2022-09-27T09:00:28.051Z,18432.00
2022-09-27T09:01:29.194Z,16736.00
2022-09-27T09:02:29.050Z,18912.00
2022-09-27T09:03:28.001Z,19584.00
2022-09-27T09:04:27.987Z,89152.00
2022-09-27T09:05:28.003Z,30880.00
2022-09-27T09:06:27.972Z,22560.00
2022-09-27T09:07:27.966Z,39936.00
2022-09-27T09:08:27.962Z,13112.00
2022-09-27T09:09:27.946Z,18016.00
2022-09-27T09:10:27.965Z,71616.00
2022-09-27T09:11:27.936Z,60800.00
2022-09-27T09:12:27.925Z,15808.00
2022-09-27T09:13:27.905Z,43200.00
2022-09-27T09:14:27.899Z,41376.00
2022-09-27T09:15:27.921Z,23936.00
2022-09-27T09:16:27.896Z,97024.00
2022-09-27T09:17:27.884Z,17984.00
2022-09-27T09:18:27.870Z,100416.00
2022-09-27T09:19:27.864Z,98688.00
2022-09-27T09:20:27.895Z,21120.00
2022-09-27T09:21:27.848Z,13844.00
2022-09-27T09:22:27.845Z,11436.00
2022-09-27T09:23:27.863Z,9568.00
2022-09-27T09:24:27.827Z,9680.00
2022-09-27T09:25:27.816Z,12320.00
2022-09-27T09:26:27.807Z,14904.00
2022-09-27T09:27:27.827Z,18784.00
2022-09-27T09:28:27.800Z,17568.00
2022-09-27T09:29:27.786Z,19168.00
2022-09-27T09:30:27.775Z,18176.00
2022-09-27T09:31:27.838Z,16160.00
2022-09-27T09:32:28.790Z,14816.00
2022-09-27T09:33:27.761Z,14476.00
2022-09-27T09:34:27.746Z,14376.00
2022-09-27T09:35:27.740Z,14172.00
2022-09-27T09:36:27.723Z,9372.00
2022-09-27T09:37:27.822Z,7736.00
2022-09-27T09:38:27.713Z,6576.00
2022-09-27T09:39:27.705Z,5388.00
2022-09-27T09:40:27.742Z,4776.00
2022-09-27T09:41:27.688Z,4952.00
2022-09-27T09:42:27.713Z,4592.00
2022-09-27T09:43:27.671Z,4360.00
2022-09-27T09:44:27.664Z,4420.00
2022-09-27T09:45:27.713Z,5284.00
2022-09-27T09:46:27.640Z,8088.00
2022-09-27T09:47:28.661Z,12892.00
2022-09-27T09:48:27.631Z,24384.00
2022-09-27T09:49:27.620Z,38240.00
2022-09-27T09:50:27.608Z,54272.00
2022-09-27T09:51:27.593Z,115904.00
2022-09-27T09:52:27.617Z,121056.00
2022-09-27T09:53:27.591Z,28800.00
2022-09-27T09:54:27.574Z,37984.00
2022-09-27T09:55:27.565Z,35168.00
2022-09-27T09:56:27.560Z,23520.00
2022-09-27T09:57:27.585Z,25344.00
2022-09-27T09:58:27.552Z,20896.00
2022-09-27T09:59:27.539Z,26560.00
2022-09-27T10:00:27.534Z,27680.00
2022-09-27T10:01:27.569Z,14800.00
2022-09-27T10:02:27.625Z,11560.00
2022-09-27T10:03:27.507Z,9452.00
2022-09-27T10:04:27.503Z,7636.00
2022-09-27T10:05:27.489Z,6680.00
2022-09-27T10:06:27.480Z,6472.00
2022-09-27T10:07:27.499Z,6108.00
2022-09-27T10:08:27.467Z,5520.00
2022-09-27T10:09:27.455Z,5236.00
2022-09-27T10:10:27.448Z,5464.00
2022-09-27T10:11:27.478Z,5808.00
2022-09-27T10:12:27.468Z,6256.00
2022-09-27T10:13:27.422Z,7276.00
2022-09-27T10:14:27.419Z,8720.00
2022-09-27T10:15:27.407Z,11236.00
2022-09-27T10:16:27.475Z,14412.00
2022-09-27T10:17:27.398Z,18496.00
2022-09-27T10:18:27.384Z,22432.00
2022-09-27T10:19:27.389Z,35552.00
2022-09-27T10:20:27.366Z,44096.00
2022-09-27T10:21:27.405Z,37088.00
2022-09-27T10:22:27.356Z,33888.00
2022-09-27T10:23:27.346Z,81088.00
2022-09-27T10:24:27.341Z,69952.00
2022-09-27T10:25:27.329Z,72000.00
2022-09-27T10:26:27.324Z,66176.00
2022-09-27T10:27:27.345Z,61888.00
2022-09-27T10:28:27.311Z,44192.00
2022-09-27T10:29:27.306Z,66528.00
2022-09-27T10:30:27.295Z,26496.00
2022-09-27T10:31:27.354Z,14052.00
2022-09-27T10:32:27.328Z,12936.00
2022-09-27T10:33:27.335Z,14180.00
2022-09-27T10:34:27.256Z,17152.00
2022-09-27T10:35:27.246Z,13704.00
2022-09-27T10:36:27.242Z,16896.00
2022-09-27T10:37:27.263Z,13272.00
2022-09-27T10:38:27.224Z,10240.00
2022-09-27T10:39:27.222Z,8956.00
2022-09-27T10:40:27.246Z,7932.00
2022-09-27T10:41:27.195Z,7176.00
2022-09-27T10:42:27.227Z,6840.00
2022-09-27T10:43:29.664Z,6828.00
2022-09-27T10:44:28.171Z,6724.00
2022-09-27T10:45:27.199Z,6520.00
2022-09-27T10:46:27.164Z,6404.00
2022-09-27T10:47:27.180Z,6468.00
2022-09-27T10:48:27.142Z,6732.00
2022-09-27T10:49:27.143Z,7508.00
2022-09-27T10:50:49.097Z,9312.00
2022-09-27T10:51:29.156Z,11424.00
2022-09-27T10:52:27.114Z,12724.00
2022-09-27T10:53:27.108Z,13612.00
2022-09-27T10:54:27.100Z,14996.00
2022-09-27T10:55:27.091Z,15304.00
2022-09-27T10:56:27.086Z,19072.00
2022-09-27T10:57:27.107Z,89216.00
2022-09-27T10:58:27.072Z,29888.00
2022-09-27T10:59:27.060Z,18784.00
2022-09-27T11:00:27.058Z,19072.00
2022-09-27T11:01:27.122Z,24128.00
2022-09-27T11:02:27.127Z,21952.00
2022-09-27T11:03:27.018Z,20608.00
2022-09-27T11:04:27.062Z,17824.00
2022-09-27T11:05:27.014Z,15896.00
2022-09-27T11:06:26.999Z,15972.00
2022-09-27T11:07:27.022Z,15836.00
2022-09-27T11:08:26.986Z,13484.00
2022-09-27T11:09:26.974Z,11812.00
2022-09-27T11:10:26.967Z,11464.00
2022-09-27T11:11:26.962Z,12696.00
2022-09-27T11:12:26.981Z,11520.00
2022-09-27T11:13:26.941Z,10488.00
2022-09-27T11:14:26.936Z,9960.00
2022-09-27T11:15:26.931Z,17632.00
2022-09-27T11:16:27.040Z,10696.00
2022-09-27T11:17:26.942Z,10088.00
2022-09-27T11:18:26.938Z,9160.00
2022-09-27T11:19:26.903Z,8392.00
2022-09-27T11:20:26.888Z,8112.00
2022-09-27T11:21:26.883Z,7960.00
2022-09-27T11:22:26.899Z,7736.00
2022-09-27T11:23:26.873Z,8028.00
2022-09-27T11:24:26.854Z,8128.00
2022-09-27T11:25:31.577Z,7992.00
2022-09-27T11:26:28.853Z,7976.00
2022-09-27T11:27:26.852Z,8248.00
2022-09-27T11:28:26.832Z,8852.00
2022-09-27T11:29:26.813Z,9384.00
2022-09-27T11:30:26.806Z,9484.00
2022-09-27T11:31:26.834Z,9572.00
2022-09-27T11:32:26.813Z,9936.00
2022-09-27T11:33:26.779Z,10616.00
2022-09-27T11:34:26.773Z,12428.00
2022-09-27T11:35:26.758Z,20864.00
2022-09-27T11:36:26.757Z,44384.00
2022-09-27T11:37:26.780Z,21280.00
2022-09-27T11:38:50.947Z,24352.00
2022-09-27T11:39:28.725Z,18784.00
2022-09-27T11:40:26.731Z,22272.00
2022-09-27T11:41:26.711Z,30784.00
2022-09-27T11:42:26.728Z,29856.00
2022-09-27T11:43:26.702Z,19424.00
2022-09-27T11:44:26.684Z,15768.00
2022-09-27T11:45:40.956Z,13120.00
2022-09-27T11:46:36.619Z,11436.00
2022-09-27T11:47:28.795Z,10380.00
2022-09-27T11:48:26.653Z,9724.00
2022-09-27T11:49:26.648Z,9660.00
2022-09-27T11:50:26.633Z,10684.00
2022-09-27T11:51:27.626Z,16640.00
2022-09-27T11:52:26.659Z,18944.00
2022-09-27T11:53:26.613Z,18528.00
2022-09-27T11:54:26.606Z,17408.00
2022-09-27T11:55:26.589Z,23744.00
2022-09-27T11:56:26.598Z,25504.00
2022-09-27T11:57:26.600Z,26976.00
2022-09-27T11:58:27.838Z,27168.00
2022-09-27T11:59:27.563Z,24512.00
2022-09-27T12:00:26.550Z,16640.00
2022-09-27T12:01:26.547Z,16120.00
2022-09-27T12:02:26.666Z,13500.00
2022-09-27T12:03:26.561Z,16864.00
2022-09-27T12:04:26.517Z,19584.00
2022-09-27T12:05:26.514Z,20960.00
2022-09-27T12:06:26.502Z,19872.00
2022-09-27T12:07:26.497Z,24288.00
2022-09-27T12:08:26.513Z,18656.00
2022-09-27T12:09:26.483Z,16072.00
2022-09-27T12:10:26.457Z,16960.00
2022-09-27T12:11:27.473Z,15392.00
2022-09-27T12:12:26.451Z,15664.00
2022-09-27T12:13:26.474Z,21792.00
2022-09-27T12:14:27.190Z,13276.00
2022-09-27T12:15:27.419Z,16608.00
2022-09-27T12:16:26.416Z,18688.00
2022-09-27T12:17:26.438Z,37696.00
2022-09-27T12:18:26.404Z,41184.00
2022-09-27T12:19:26.397Z,33632.00
2022-09-27T12:20:26.393Z,36544.00
2022-09-27T12:21:26.387Z,42528.00
2022-09-27T12:22:53.868Z,18816.00
2022-09-27T12:23:28.360Z,44480.00
2022-09-27T12:24:26.357Z,27840.00
2022-09-27T12:25:26.402Z,16768.00
2022-09-27T12:26:26.342Z,16640.00
2022-09-27T12:27:26.369Z,16072.00
2022-09-27T12:28:28.454Z,40096.00
2022-09-27T12:29:27.313Z,41792.00